Time;durP1;ratioP1;P1;durP2;ratioP2;P2;SDS_P1;SDS_P2;PMS_P1;PMS_P2;Temp;Humidity;BMP_temperature;BMP_pressure;BME280_temperature;BME280_humidity;BME280_pressure;Samples;Min_cycle;Max_cycle;Signal;HPM_P1;HPM_P2
2022/03/28 00:01:16;;;;;;;14.67;10.57;;;10.20;83.90;;;;;;5000262;28;20176;-64
2022/03/28 00:03:42;;;;;;;18.17;10.90;;;10.20;85.20;;;;;;4999967;28;20440;-64
2022/03/28 00:06:07;;;;;;;24.87;15.60;;;10.10;86.80;;;;;;5000253;28;20229;-64
2022/03/28 00:08:34;;;;;;;23.30;14.03;;;10.00;87.30;;;;;;4997580;28;20669;-64
2022/03/28 00:10:59;;;;;;;15.50;12.43;;;10.00;86.70;;;;;;5006235;28;20630;-64
2022/03/28 00:13:25;;;;;;;19.50;12.00;;;10.00;89.50;;;;;;4990046;28;20493;-64
2022/03/28 00:15:51;;;;;;;17.17;10.90;;;10.00;90.20;;;;;;4986598;28;20191;-64
2022/03/28 00:18:17;;;;;;;16.60;12.53;;;10.00;90.30;;;;;;4988851;28;20458;-64
2022/03/28 00:20:46;;;;;;;16.53;11.43;;;9.90;90.20;;;;;;4986524;28;20434;-64
2022/03/28 00:23:13;;;;;;;19.53;12.10;;;9.80;90.10;;;;;;4990040;28;20203;-64
2022/03/28 00:25:40;;;;;;;19.70;10.47;;;9.80;88.70;;;;;;4990144;28;20442;-64
2022/03/28 00:28:09;;;;;;;15.50;10.30;;;9.70;88.50;;;;;;4989168;28;21010;-65
2022/03/28 00:30:34;;;;;;;13.17;9.27;;;9.60;88.70;;;;;;4992499;28;20449;-64
2022/03/28 00:33:00;;;;;;;18.87;11.33;;;9.60;89.30;;;;;;4990940;28;20840;-64
2022/03/28 00:35:26;;;;;;;13.10;9.23;;;9.70;90.30;;;;;;4990023;28;20651;-64
2022/03/28 00:37:53;;;;;;;22.47;11.00;;;9.70;90.40;;;;;;4995358;28;20253;-64
2022/03/28 00:40:20;;;;;;;15.37;11.60;;;9.60;89.70;;;;;;4990492;28;20443;-64
2022/03/28 00:42:48;;;;;;;12.67;10.30;;;9.60;88.70;;;;;;4992432;28;20473;-64
2022/03/28 00:45:14;;;;;;;21.53;11.87;;;9.60;90.80;;;;;;4990735;28;20438;-64
2022/03/28 00:47:40;;;;;;;17.60;10.17;;;9.50;90.20;;;;;;4989958;28;20446;-64
2022/03/28 00:50:06;;;;;;;17.63;11.37;;;9.50;90.20;;;;;;4998249;28;20446;-64
2022/03/28 00:52:33;;;;;;;14.37;11.27;;;9.50;90.40;;;;;;4996624;28;20477;-64
2022/03/28 00:55:00;;;;;;;13.90;10.73;;;9.40;91.00;;;;;;4988528;28;20466;-64
2022/03/28 00:57:27;;;;;;;17.70;11.77;;;9.40;90.80;;;;;;4985579;28;21039;-64
2022/03/28 00:59:53;;;;;;;17.13;11.20;;;9.40;89.40;;;;;;4984955;28;20872;-64
2022/03/28 01:02:18;;;;;;;20.13;11.93;;;9.40;91.10;;;;;;4994733;28;20546;-64
2022/03/28 01:04:44;;;;;;;17.27;11.60;;;9.40;91.10;;;;;;4989116;28;20184;-64
2022/03/28 01:07:09;;;;;;;14.90;10.73;;;9.40;90.10;;;;;;4989974;28;20187;-64
2022/03/28 01:09:35;;;;;;;18.73;11.83;;;9.40;90.80;;;;;;4991632;28;20187;-64
2022/03/28 01:12:02;;;;;;;17.80;12.70;;;9.40;90.30;;;;;;4993366;28;20246;-64
2022/03/28 01:14:28;;;;;;;22.13;12.33;;;9.40;89.40;;;;;;4992531;28;20191;-64
2022/03/28 01:19:38;;;;;;;14.30;11.40;;;9.40;90.80;;;;;;4986202;28;20708;-64
2022/03/28 01:22:03;;;;;;;17.87;11.60;;;9.30;91.30;;;;;;4992424;28;20454;-64
2022/03/28 01:24:30;;;;;;;18.63;11.73;;;9.20;91.80;;;;;;4991817;28;20430;-65
2022/03/28 01:26:58;;;;;;;14.70;11.00;;;9.20;91.30;;;;;;4989366;28;20266;-65
2022/03/28 01:29:25;;;;;;;14.73;11.43;;;9.20;91.00;;;;;;4997212;28;20435;-64
2022/03/28 01:31:50;;;;;;;15.13;9.50;;;9.20;90.80;;;;;;5004552;28;20486;-64
2022/03/28 01:34:20;;;;;;;17.53;10.93;;;9.30;89.10;;;;;;4989415;28;20477;-64
2022/03/28 01:36:47;;;;;;;14.43;9.83;;;9.20;87.90;;;;;;4990099;28;20211;-65
2022/03/28 01:39:17;;;;;;;15.57;10.73;;;9.20;87.20;;;;;;4987161;28;20471;-65
2022/03/28 01:41:43;;;;;;;13.80;9.90;;;9.30;85.50;;;;;;4990481;28;20545;-65
2022/03/28 01:44:08;;;;;;;15.23;10.77;;;9.20;83.60;;;;;;4990955;28;20547;-65
2022/03/28 01:46:45;;;;;;;14.00;8.63;;;9.20;85.00;;;;;;4992731;28;20262;-65
2022/03/28 01:49:12;;;;;;;16.90;9.60;;;9.20;84.80;;;;;;4992696;28;20567;-65
2022/03/28 01:51:38;;;;;;;16.13;10.90;;;9.20;85.20;;;;;;4991817;28;20478;-64
2022/03/28 01:54:04;;;;;;;12.40;9.50;;;9.00;91.80;;;;;;4987400;28;20435;-65
2022/03/28 01:56:29;;;;;;;14.70;10.17;;;9.00;87.90;;;;;;4974415;28;20488;-65
2022/03/28 01:58:55;;;;;;;16.37;10.33;;;8.90;85.30;;;;;;4989899;28;20222;-65
2022/03/28 02:01:21;;;;;;;18.10;14.33;;;8.90;82.50;;;;;;4992135;28;20184;-65
2022/03/28 02:03:46;;;;;;;17.47;11.60;;;9.00;81.70;;;;;;4986353;28;20225;-65
2022/03/28 02:06:12;;;;;;;15.43;10.10;;;9.00;80.10;;;;;;4991193;28;20171;-65
2022/03/28 02:08:38;;;;;;;16.40;10.43;;;9.00;82.60;;;;;;4991361;28;20310;-65
2022/03/28 02:11:03;;;;;;;16.43;9.73;;;9.00;80.30;;;;;;4985929;28;20184;-65
2022/03/28 02:13:29;;;;;;;13.57;10.00;;;9.00;83.10;;;;;;4992302;28;20674;-65
2022/03/28 02:15:54;;;;;;;18.33;10.20;;;9.00;81.80;;;;;;4997962;28;20179;-65
2022/03/28 02:18:20;;;;;;;15.53;9.50;;;9.00;84.10;;;;;;4997978;28;20278;-66
2022/03/28 02:20:45;;;;;;;13.93;10.00;;;8.80;85.00;;;;;;4993523;28;20179;-65
2022/03/28 02:23:11;;;;;;;14.47;11.37;;;8.70;86.30;;;;;;4984283;28;20272;-65
2022/03/28 02:25:39;;;;;;;17.13;10.73;;;8.70;86.70;;;;;;4982143;28;20187;-65
2022/03/28 02:28:05;;;;;;;19.40;9.33;;;8.70;85.10;;;;;;4988706;28;20215;-67
2022/03/28 02:30:31;;;;;;;12.93;10.37;;;8.60;85.20;;;;;;4988947;28;20485;-65
2022/03/28 02:32:57;;;;;;;15.60;9.40;;;8.60;85.10;;;;;;4992971;28;20466;-66
2022/03/28 02:35:24;;;;;;;21.57;9.83;;;8.60;85.80;;;;;;4988328;28;20646;-65
2022/03/28 02:37:50;;;;;;;16.07;10.20;;;8.60;90.60;;;;;;4990233;28;20462;-65
2022/03/28 02:40:16;;;;;;;17.67;10.37;;;8.60;90.90;;;;;;5001218;28;20504;-66
2022/03/28 02:42:41;;;;;;;17.10;11.07;;;8.50;90.90;;;;;;4991797;28;20952;-64
2022/03/28 02:45:08;;;;;;;16.97;10.57;;;8.40;87.80;;;;;;4992454;28;20187;-65
2022/03/28 02:47:34;;;;;;;13.37;10.30;;;8.40;87.60;;;;;;4989390;28;20438;-65
2022/03/28 02:50:00;;;;;;;13.53;10.10;;;8.30;86.70;;;;;;4989636;28;20443;-66
2022/03/28 02:52:26;;;;;;;16.20;9.43;;;8.30;87.10;;;;;;4988018;28;20474;-65
2022/03/28 02:54:52;;;;;;;13.80;9.70;;;8.30;89.90;;;;;;4984197;28;20234;-64
2022/03/28 02:57:17;;;;;;;18.27;10.23;;;8.30;87.10;;;;;;4988776;28;20436;-64
2022/03/28 02:59:43;;;;;;;14.30;10.03;;;8.30;87.30;;;;;;4994896;28;20465;-65
2022/03/28 03:02:09;;;;;;;14.00;9.80;;;8.30;87.70;;;;;;4988928;28;20213;-65
2022/03/28 03:04:34;;;;;;;14.40;9.70;;;8.30;88.10;;;;;;4990522;28;20183;-65
2022/03/28 03:07:00;;;;;;;15.13;9.60;;;8.30;89.10;;;;;;4988149;28;20172;-65
2022/03/28 03:09:26;;;;;;;12.20;9.03;;;8.30;89.70;;;;;;4989642;28;20261;-65
2022/03/28 03:11:51;;;;;;;18.23;10.37;;;8.30;91.30;;;;;;4989053;28;20462;-65
2022/03/28 03:14:17;;;;;;;17.13;9.80;;;8.30;91.50;;;;;;4989991;28;20681;-64
2022/03/28 03:16:43;;;;;;;14.27;9.30;;;8.20;91.20;;;;;;4989951;28;20195;-65
2022/03/28 03:19:09;;;;;;;14.83;10.47;;;8.20;91.50;;;;;;4989404;28;20200;-66
2022/03/28 03:21:35;;;;;;;13.27;9.80;;;8.20;91.80;;;;;;4991002;28;20204;-65
2022/03/28 03:24:02;;;;;;;17.23;11.20;;;8.00;91.90;;;;;;4990271;28;20813;-65
2022/03/28 03:26:28;;;;;;;20.83;11.13;;;8.00;92.10;;;;;;4995554;28;20485;-65
2022/03/28 03:28:55;;;;;;;12.37;9.90;;;8.10;92.10;;;;;;4988738;28;20602;-65
2022/03/28 03:31:22;;;;;;;17.87;12.00;;;8.10;91.80;;;;;;4991596;28;20487;-65
2022/03/28 03:33:47;;;;;;;14.23;9.60;;;8.10;91.90;;;;;;4989093;28;20469;-66
2022/03/28 03:36:13;;;;;;;15.57;10.30;;;8.00;92.20;;;;;;4992368;28;20456;-65
2022/03/28 03:38:38;;;;;;;15.90;9.70;;;8.00;92.90;;;;;;4994915;28;20584;-65
2022/03/28 03:41:04;;;;;;;18.23;10.67;;;7.90;93.10;;;;;;4972313;28;20179;-66
2022/03/28 03:43:30;;;;;;;16.57;10.60;;;7.90;93.30;;;;;;4988192;28;20286;-66
2022/03/28 03:45:56;;;;;;;19.30;10.90;;;7.90;93.30;;;;;;4974604;28;20832;-65
2022/03/28 03:48:22;;;;;;;13.43;11.73;;;7.80;93.60;;;;;;4988441;28;20183;-65
2022/03/28 03:50:47;;;;;;;14.10;9.43;;;7.80;93.80;;;;;;4984801;28;20192;-65
2022/03/28 03:53:14;;;;;;;14.07;10.03;;;7.80;93.70;;;;;;5007164;23;20494;-67
2022/03/28 03:55:39;;;;;;;14.27;9.00;;;7.70;93.80;;;;;;4990448;28;20221;-65
2022/03/28 03:58:05;;;;;;;13.37;9.77;;;7.70;94.20;;;;;;4987629;28;20466;-67
2022/03/28 04:00:31;;;;;;;19.93;11.50;;;7.80;94.90;;;;;;4986401;28;20222;-65
2022/03/28 04:02:57;;;;;;;16.80;10.63;;;7.80;95.20;;;;;;4988231;28;21002;-68
2022/03/28 04:05:22;;;;;;;18.90;11.27;;;7.80;95.00;;;;;;4986440;28;20191;-65
2022/03/28 04:07:48;;;;;;;14.43;10.50;;;7.70;94.80;;;;;;4991181;28;20661;-66
2022/03/28 04:10:14;;;;;;;16.40;11.13;;;7.70;95.00;;;;;;4988225;28;20638;-65
2022/03/28 04:12:39;;;;;;;20.60;14.60;;;7.70;95.20;;;;;;4987714;28;20206;-68
2022/03/28 04:15:06;;;;;;;18.60;11.53;;;7.70;95.20;;;;;;4991788;28;20557;-65
2022/03/28 04:17:40;;;;;;;14.40;11.00;;;7.70;95.20;;;;;;4992922;28;20227;-67
2022/03/28 04:20:06;;;;;;;17.43;10.10;;;7.70;95.00;;;;;;4996812;28;20521;-67
2022/03/28 04:22:31;;;;;;;15.10;10.90;;;7.80;94.70;;;;;;4993396;28;20464;-67
2022/03/28 04:24:57;;;;;;;14.63;10.60;;;7.90;94.40;;;;;;4989106;28;20909;-67
2022/03/28 04:27:22;;;;;;;22.47;11.10;;;7.90;94.00;;;;;;4994641;28;20266;-68
2022/03/28 04:29:48;;;;;;;19.63;10.97;;;8.00;93.40;;;;;;4993807;28;20178;-68
2022/03/28 04:32:13;;;;;;;18.97;11.37;;;8.00;93.50;;;;;;4991385;28;20828;-65
2022/03/28 04:34:40;;;;;;;21.00;13.17;;;8.10;93.40;;;;;;4974671;28;20186;-67
2022/03/28 04:37:05;;;;;;;17.63;11.83;;;8.10;93.30;;;;;;4989356;28;20258;-68
2022/03/28 04:39:31;;;;;;;31.50;19.53;;;8.10;93.30;;;;;;4995222;28;20512;-67
2022/03/28 04:41:56;;;;;;;17.00;13.40;;;8.10;93.20;;;;;;4991302;28;20453;-67
2022/03/28 04:44:22;;;;;;;21.73;11.60;;;8.10;93.20;;;;;;4993506;28;20182;-67
2022/03/28 04:46:47;;;;;;;16.77;11.77;;;8.00;93.30;;;;;;4990409;28;20191;-67
2022/03/28 04:49:14;;;;;;;14.90;10.70;;;7.90;93.90;;;;;;4986827;28;20176;-67
2022/03/28 04:51:40;;;;;;;18.53;11.43;;;7.90;94.20;;;;;;4993165;28;20715;-67
2022/03/28 04:54:06;;;;;;;20.87;10.97;;;7.90;94.50;;;;;;4989310;28;20636;-68
2022/03/28 04:56:34;;;;;;;19.17;10.70;;;7.90;94.70;;;;;;4998324;28;20444;-67
2022/03/28 04:58:59;;;;;;;14.20;9.90;;;7.80;95.30;;;;;;4990122;28;20207;-67
2022/03/28 05:01:25;;;;;;;15.20;11.10;;;7.70;96.20;;;;;;4989310;28;20781;-67
2022/03/28 05:03:51;;;;;;;18.33;11.63;;;7.70;96.90;;;;;;4981462;28;20208;-68
2022/03/28 05:06:16;;;;;;;18.00;11.50;;;7.60;97.50;;;;;;4999376;28;20525;-68
2022/03/28 05:08:42;;;;;;;19.20;11.10;;;7.50;98.00;;;;;;4989011;28;20196;-67
2022/03/28 05:11:07;;;;;;;20.90;10.63;;;7.50;98.70;;;;;;4992300;28;20198;-67
2022/03/28 05:13:33;;;;;;;17.40;11.60;;;7.40;99.00;;;;;;4987295;28;20208;-67
2022/03/28 05:15:58;;;;;;;20.70;11.50;;;7.30;99.50;;;;;;4990740;28;20213;-67
2022/03/28 05:18:24;;;;;;;20.07;11.90;;;7.30;99.80;;;;;;4991011;28;20207;-66
2022/03/28 05:20:50;;;;;;;18.40;11.03;;;7.30;99.90;;;;;;4989274;28;20229;-67
2022/03/28 05:23:16;;;;;;;19.93;13.10;;;7.30;99.90;;;;;;4993583;28;20199;-67
2022/03/28 05:25:41;;;;;;;26.67;12.60;;;7.20;99.90;;;;;;4989914;28;20442;-67
2022/03/28 05:28:07;;;;;;;17.97;11.40;;;7.30;99.90;;;;;;4989058;28;20667;-67
2022/03/28 05:30:32;;;;;;;18.27;11.50;;;7.30;99.90;;;;;;4997265;28;20703;-67
2022/03/28 05:32:58;;;;;;;20.57;12.30;;;7.30;99.90;;;;;;4995221;28;20211;-67
2022/03/28 05:35:23;;;;;;;24.87;15.27;;;7.30;99.90;;;;;;4997219;28;20190;-67
2022/03/28 05:37:49;;;;;;;18.10;13.40;;;7.30;99.90;;;;;;5000882;28;20255;-67
2022/03/28 05:40:16;;;;;;;27.90;17.53;;;7.30;99.90;;;;;;5020899;28;20180;-67
2022/03/28 05:42:42;;;;;;;24.93;12.80;;;7.30;99.90;;;;;;5002818;28;20202;-67
2022/03/28 05:45:10;;;;;;;23.57;12.37;;;7.30;99.90;;;;;;5003260;28;20429;-67
2022/03/28 05:47:35;;;;;;;20.60;12.37;;;7.40;99.90;;;;;;4988676;28;20439;-67
2022/03/28 05:50:01;;;;;;;18.73;11.70;;;7.50;99.90;;;;;;5000045;28;20431;-66
2022/03/28 05:52:27;;;;;;;17.20;11.47;;;7.60;99.90;;;;;;5013697;28;20203;-67
2022/03/28 05:54:53;;;;;;;18.17;11.77;;;7.70;99.90;;;;;;4983742;28;21010;-66
2022/03/28 05:57:19;;;;;;;16.57;12.60;;;7.70;99.90;;;;;;5005568;28;20233;-68
2022/03/28 05:59:45;;;;;;;19.43;11.60;;;7.80;99.90;;;;;;4997004;28;20467;-66
2022/03/28 06:02:10;;;;;;;15.87;12.13;;;7.80;99.90;;;;;;5000099;28;20662;-65
2022/03/28 06:04:36;;;;;;;17.57;11.47;;;7.90;99.90;;;;;;5002051;28;20602;-66
2022/03/28 06:07:01;;;;;;;22.30;12.03;;;8.00;99.90;;;;;;4995924;28;20180;-66
2022/03/28 06:09:27;;;;;;;23.93;13.27;;;8.10;99.90;;;;;;4980772;28;20227;-66
2022/03/28 06:11:52;;;;;;;25.03;13.33;;;8.20;99.90;;;;;;4997471;28;20257;-66
2022/03/28 06:14:18;;;;;;;27.93;13.40;;;8.20;99.90;;;;;;4995607;28;20547;-66
2022/03/28 06:16:44;;;;;;;22.10;12.10;;;8.50;99.90;;;;;;4991797;28;20179;-66
2022/03/28 06:19:09;;;;;;;19.73;11.70;;;8.70;99.20;;;;;;4991912;28;20206;-66
2022/03/28 06:21:35;;;;;;;17.30;12.40;;;8.80;98.60;;;;;;4991539;28;20191;-66
2022/03/28 06:24:00;;;;;;;17.63;11.43;;;9.00;98.20;;;;;;4995412;28;20561;-66
2022/03/28 06:26:26;;;;;;;25.70;12.53;;;9.20;98.00;;;;;;4993426;28;20547;-67
2022/03/28 06:28:52;;;;;;;17.57;12.37;;;9.50;96.10;;;;;;4991839;28;20192;-67
2022/03/28 06:31:17;;;;;;;20.87;12.87;;;9.60;95.00;;;;;;4995054;28;20262;-66
2022/03/28 06:33:43;;;;;;;19.70;12.93;;;9.70;94.00;;;;;;4992342;28;20215;-66
2022/03/28 06:36:09;;;;;;;22.13;12.67;;;9.70;94.50;;;;;;4988528;28;20566;-66
2022/03/28 06:38:35;;;;;;;22.10;13.23;;;9.70;94.40;;;;;;4991899;28;20203;-67
2022/03/28 06:41:01;;;;;;;17.40;13.17;;;9.90;94.10;;;;;;4990519;28;20179;-66
2022/03/28 06:43:27;;;;;;;22.90;12.77;;;10.10;92.30;;;;;;4991878;28;20455;-67
2022/03/28 06:45:52;;;;;;;24.27;12.03;;;10.20;92.30;;;;;;4992753;28;20434;-67
2022/03/28 06:48:21;;;;;;;17.67;12.57;;;10.40;90.90;;;;;;4987272;28;20180;-66
2022/03/28 06:50:46;;;;;;;20.13;12.73;;;10.50;90.10;;;;;;4990534;28;20183;-66
2022/03/28 06:53:13;;;;;;;31.30;14.37;;;10.50;90.30;;;;;;4970797;28;20466;-67
2022/03/28 06:55:38;;;;;;;20.83;13.97;;;10.40;90.00;;;;;;4993894;28;20188;-67
2022/03/28 06:58:04;;;;;;;27.63;13.20;;;10.40;90.30;;;;;;4992748;28;20467;-67
2022/03/28 07:00:29;;;;;;;20.53;13.00;;;10.60;90.20;;;;;;4988257;28;20531;-66
2022/03/28 07:02:55;;;;;;;21.60;12.40;;;10.70;89.40;;;;;;4967090;28;20218;-66
2022/03/28 07:05:21;;;;;;;23.90;14.20;;;10.90;87.90;;;;;;4962559;28;20183;-66
2022/03/28 07:07:49;;;;;;;18.47;13.73;;;10.90;86.90;;;;;;4989606;28;20190;-66
2022/03/28 07:10:19;;;;;;;20.13;13.33;;;10.90;85.10;;;;;;4987006;28;20290;-66
2022/03/28 07:12:45;;;;;;;18.33;13.93;;;10.90;86.40;;;;;;4984409;28;20451;-66
2022/03/28 07:15:12;;;;;;;21.00;13.90;;;10.90;84.60;;;;;;4997099;28;20437;-66
2022/03/28 07:17:54;;;;;;;23.00;13.90;;;10.70;83.80;;;;;;4994748;28;20943;-65
2022/03/28 07:20:22;;;;;;;25.03;13.50;;;10.60;85.00;;;;;;4987140;28;20790;-67
2022/03/28 07:22:48;;;;;;;30.83;14.57;;;10.70;84.70;;;;;;4982563;28;20462;-67
2022/03/28 07:25:13;;;;;;;23.70;13.17;;;10.80;85.60;;;;;;4987134;28;20443;-66
2022/03/28 07:27:40;;;;;;;21.57;14.47;;;11.00;84.60;;;;;;4988625;28;20183;-67
2022/03/28 07:30:07;;;;;;;24.83;16.10;;;11.20;83.70;;;;;;4989813;28;20180;-67
2022/03/28 07:32:33;;;;;;;23.70;16.50;;;11.30;82.90;;;;;;4983803;28;20500;-67
2022/03/28 07:34:58;;;;;;;19.93;14.20;;;11.60;82.30;;;;;;4986496;28;20438;-67
2022/03/28 07:37:24;;;;;;;22.57;14.63;;;11.70;81.50;;;;;;4993340;28;20440;-67
2022/03/28 07:39:50;;;;;;;24.20;15.13;;;11.70;80.90;;;;;;4987096;28;20238;-67
2022/03/28 07:42:15;;;;;;;28.53;15.60;;;11.90;80.30;;;;;;4985099;28;21060;-67
2022/03/28 07:44:44;;;;;;;24.03;16.40;;;12.10;79.70;;;;;;4988355;28;20191;-67
2022/03/28 07:47:10;;;;;;;25.30;16.77;;;12.30;78.80;;;;;;4989235;28;20180;-67
2022/03/28 07:49:37;;;;;;;24.00;14.87;;;12.50;78.10;;;;;;4994439;28;20529;-66
2022/03/28 07:52:04;;;;;;;28.10;17.17;;;12.60;77.90;;;;;;4987186;28;20482;-67
2022/03/28 07:54:29;;;;;;;20.37;13.33;;;13.00;76.00;;;;;;4995697;28;20857;-67
2022/03/28 07:56:55;;;;;;;20.37;15.53;;;13.20;74.50;;;;;;4991001;28;20494;-67
2022/03/28 07:59:23;;;;;;;20.77;14.33;;;13.40;73.30;;;;;;4991854;28;20236;-67
2022/03/28 08:01:50;;;;;;;21.83;16.07;;;13.50;72.40;;;;;;4996015;28;20207;-67
2022/03/28 08:04:15;;;;;;;25.13;15.37;;;13.70;71.50;;;;;;4989077;28;20961;-67
2022/03/28 08:06:41;;;;;;;21.30;16.63;;;13.80;70.90;;;;;;4989334;28;20450;-66
2022/03/28 08:09:06;;;;;;;23.67;18.53;;;14.10;70.10;;;;;;4989907;28;20517;-67
2022/03/28 08:11:32;;;;;;;26.10;13.97;;;14.30;69.00;;;;;;4989209;28;20645;-68
2022/03/28 08:13:57;;;;;;;22.87;15.83;;;14.80;68.70;;;;;;4984385;28;20183;-67
2022/03/28 08:16:23;;;;;;;25.40;17.70;;;15.50;65.70;;;;;;4994700;28;20195;-67
2022/03/28 08:18:48;;;;;;;24.77;16.60;;;16.00;63.40;;;;;;4987654;28;20207;-66
2022/03/28 08:21:14;;;;;;;21.77;16.23;;;16.20;61.90;;;;;;4992594;28;20654;-67
2022/03/28 08:23:39;;;;;;;21.60;16.20;;;16.50;61.00;;;;;;4984230;28;20578;-67
2022/03/28 08:26:05;;;;;;;19.90;14.43;;;16.40;60.30;;;;;;4994831;28;20180;-66
2022/03/28 08:28:32;;;;;;;23.83;16.10;;;16.50;60.30;;;;;;4988439;28;20191;-67
2022/03/28 08:30:57;;;;;;;18.00;15.30;;;17.00;59.50;;;;;;4988199;28;20800;-67
2022/03/28 08:33:23;;;;;;;26.13;16.73;;;17.60;58.50;;;;;;4985912;28;20473;-67
2022/03/28 08:35:48;;;;;;;21.20;15.30;;;17.90;57.10;;;;;;4997602;28;20605;-67
2022/03/28 08:38:15;;;;;;;24.50;15.47;;;18.10;56.50;;;;;;4997727;28;20342;-66
2022/03/28 08:40:43;;;;;;;20.53;16.27;;;18.30;55.70;;;;;;4998852;28;20274;-66
2022/03/28 08:43:09;;;;;;;19.40;16.40;;;18.40;55.00;;;;;;4989689;28;20853;-67
2022/03/28 08:45:38;;;;;;;23.27;16.00;;;18.60;55.60;;;;;;5001765;28;20980;-67
2022/03/28 08:48:06;;;;;;;26.43;16.90;;;19.20;54.70;;;;;;4994006;28;20179;-67
2022/03/28 08:50:32;;;;;;;20.70;18.43;;;19.60;53.10;;;;;;4988855;28;20436;-67
2022/03/28 08:52:58;;;;;;;22.20;16.63;;;20.00;52.20;;;;;;4982442;28;20481;-67
2022/03/28 08:55:24;;;;;;;26.83;17.50;;;20.40;51.60;;;;;;4990638;28;20446;-67
2022/03/28 08:57:50;;;;;;;18.77;16.63;;;20.60;50.70;;;;;;4985954;28;20191;-67
2022/03/28 09:00:16;;;;;;;21.83;18.17;;;20.80;50.20;;;;;;4984880;28;20429;-68
2022/03/28 09:02:46;;;;;;;26.77;16.97;;;21.30;49.30;;;;;;4985732;28;20780;-67
2022/03/28 09:05:13;;;;;;;25.83;18.73;;;21.80;47.90;;;;;;4987733;28;20199;-67
2022/03/28 09:07:40;;;;;;;21.27;18.50;;;22.60;47.00;;;;;;4983774;28;20434;-68
2022/03/28 09:10:11;;;;;;;24.53;17.20;;;23.20;45.30;;;;;;4982436;28;20478;-68
2022/03/28 09:12:55;;;;;;;22.70;18.20;;;24.00;44.40;;;;;;4982639;28;20994;-68
2022/03/28 09:15:21;;;;;;;23.83;16.97;;;24.70;42.70;;;;;;4989783;28;20521;-68
2022/03/28 09:17:55;;;;;;;26.60;18.23;;;25.20;41.50;;;;;;4986279;28;20530;-68
2022/03/28 09:20:23;;;;;;;27.50;17.93;;;24.70;41.10;;;;;;4986029;28;20625;-68
2022/03/28 09:22:49;;;;;;;31.40;18.40;;;25.60;40.00;;;;;;4985670;28;20465;-68
2022/03/28 09:25:17;;;;;;;22.47;18.50;;;26.00;39.60;;;;;;4984934;28;20443;-69
2022/03/28 09:27:44;;;;;;;23.53;19.63;;;26.40;39.00;;;;;;4990839;28;20183;-68
2022/03/28 09:30:20;;;;;;;23.30;18.60;;;26.60;38.10;;;;;;4993378;28;20450;-66
2022/03/28 09:32:51;;;;;;;29.97;18.70;;;27.30;37.80;;;;;;4986325;28;20454;-66
2022/03/28 09:35:21;;;;;;;20.23;18.00;;;27.40;36.60;;;;;;4986195;28;20564;-66
2022/03/28 09:38:04;;;;;;;21.10;18.20;;;27.60;36.20;;;;;;4987836;28;20442;-66
2022/03/28 09:40:39;;;;;;;28.73;19.60;;;27.80;35.30;;;;;;4983178;28;20445;-68
2022/03/28 09:43:29;;;;;;;21.97;17.47;;;26.80;35.30;;;;;;4982087;28;20810;-68
2022/03/28 09:45:57;;;;;;;21.70;18.67;;;26.50;35.90;;;;;;4987210;28;21031;-68
2022/03/28 09:48:27;;;;;;;21.67;19.23;;;27.70;34.50;;;;;;4984612;28;20984;-68
2022/03/28 09:51:03;;;;;;;20.77;18.63;;;28.50;33.60;;;;;;4990925;28;20441;-66
2022/03/28 09:53:31;;;;;;;21.07;18.90;;;28.70;32.80;;;;;;5011586;23;21019;-67
2022/03/28 09:55:57;;;;;;;26.00;19.87;;;28.80;32.50;;;;;;4988861;28;20449;-67
2022/03/28 09:58:47;;;;;;;21.40;19.40;;;29.20;32.30;;;;;;4990704;28;20458;-67
2022/03/28 10:01:21;;;;;;;24.03;19.77;;;29.20;32.30;;;;;;4981474;28;20184;-67
2022/03/28 10:03:55;;;;;;;25.50;22.10;;;29.60;31.60;;;;;;4984917;28;21044;-67
2022/03/28 10:06:22;;;;;;;20.73;17.67;;;29.90;30.90;;;;;;4985418;28;20514;-67
2022/03/28 10:08:48;;;;;;;20.13;18.03;;;30.10;31.10;;;;;;4994167;28;20975;-67
2022/03/28 10:11:16;;;;;;;21.10;18.73;;;30.10;30.00;;;;;;4973452;28;20443;-67
2022/03/28 10:13:42;;;;;;;22.87;18.70;;;30.10;29.90;;;;;;4990212;28;20464;-67
2022/03/28 10:16:09;;;;;;;21.27;19.10;;;30.20;30.00;;;;;;4983901;28;20446;-67
2022/03/28 10:18:38;;;;;;;18.60;16.60;;;31.90;29.00;;;;;;4986526;28;20885;-67
2022/03/28 10:21:32;;;;;;;25.33;18.67;;;31.90;29.20;;;;;;4982955;28;20436;-68
2022/03/28 10:24:08;;;;;;;21.10;18.10;;;32.30;28.80;;;;;;4982843;28;20969;-67
2022/03/28 10:26:37;;;;;;;20.60;18.23;;;33.00;28.40;;;;;;4989570;28;20815;-69
2022/03/28 10:29:11;;;;;;;20.03;18.13;;;33.00;27.90;;;;;;4985124;28;20438;-71
2022/03/28 10:31:55;;;;;;;19.47;17.67;;;33.20;28.00;;;;;;4996061;28;20433;-71
2022/03/28 10:34:53;;;;;;;22.87;20.47;;;34.50;27.60;;;;;;4987937;28;20456;-71
2022/03/28 10:37:39;;;;;;;23.77;20.23;;;33.50;26.40;;;;;;4987559;28;20446;-68
2022/03/28 10:40:30;;;;;;;23.57;21.37;;;33.40;27.30;;;;;;4985815;28;20479;-69
2022/03/28 10:43:12;;;;;;;24.63;21.93;;;34.30;27.20;;;;;;4987986;28;20552;-68
2022/03/28 10:45:39;;;;;;;20.07;18.03;;;35.20;26.40;;;;;;4994037;28;20860;-67
2022/03/28 10:48:09;;;;;;;21.13;18.00;;;36.50;25.90;;;;;;4992236;28;20443;-68
2022/03/28 10:50:36;;;;;;;16.17;14.87;;;37.50;25.00;;;;;;4998857;28;20765;-64
2022/03/28 10:53:13;;;;;;;16.33;14.80;;;36.40;22.40;;;;;;4987909;28;20478;-67
2022/03/28 10:55:46;;;;;;;18.03;16.43;;;33.60;21.60;;;;;;4987699;28;20450;-71
2022/03/28 10:58:16;;;;;;;17.07;15.20;;;34.00;21.40;;;;;;4999967;28;20495;-67
2022/03/28 11:01:07;;;;;;;16.20;14.50;;;34.70;21.30;;;;;;4983325;28;20513;-66
2022/03/28 11:03:34;;;;;;;16.37;14.97;;;34.80;21.40;;;;;;4993466;28;20987;-65
2022/03/28 11:06:01;;;;;;;17.53;15.97;;;34.80;21.40;;;;;;4993117;28;20442;-66
2022/03/28 11:08:33;;;;;;;16.70;15.00;;;36.80;21.80;;;;;;4999561;28;20445;-66
2022/03/28 11:11:22;;;;;;;16.27;14.60;;;37.60;20.90;;;;;;5001537;28;20987;-66
2022/03/28 11:14:00;;;;;;;15.03;13.83;;;36.90;20.20;;;;;;4987367;28;20464;-66
2022/03/28 11:16:42;;;;;;;18.07;16.13;;;34.90;21.00;;;;;;5002697;28;20451;-66
2022/03/28 11:19:29;;;;;;;17.20;15.60;;;33.00;21.60;;;;;;4995730;28;20541;-66
2022/03/28 11:22:03;;;;;;;16.03;14.63;;;31.60;22.30;;;;;;4995379;28;20441;-65
2022/03/28 11:24:44;;;;;;;18.83;17.33;;;30.60;23.40;;;;;;4993620;28;21034;-69
2022/03/28 11:27:10;;;;;;;18.10;16.30;;;31.70;23.00;;;;;;4993142;28;20838;-65
2022/03/28 11:29:35;;;;;;;16.83;15.23;;;33.80;22.60;;;;;;4997427;28;20445;-65
2022/03/28 11:32:13;;;;;;;20.97;18.83;;;36.00;22.30;;;;;;4996422;28;20437;-66
2022/03/28 11:34:39;;;;;;;26.87;20.00;;;35.90;23.50;;;;;;4992621;28;20190;-66
2022/03/28 11:37:05;;;;;;;20.50;18.37;;;36.20;23.40;;;;;;4989873;28;21059;-65
2022/03/28 11:39:50;;;;;;;21.90;19.63;;;35.00;22.80;;;;;;4993757;28;20207;-65
2022/03/28 11:42:19;;;;;;;20.90;18.90;;;33.70;23.30;;;;;;4974205;28;20588;-66
2022/03/28 11:44:45;;;;;;;23.70;21.30;;;34.70;23.60;;;;;;4992300;28;20538;-65
2022/03/28 11:47:13;;;;;;;22.43;19.77;;;35.80;23.20;;;;;;4996347;28;20534;-66
2022/03/28 11:49:54;;;;;;;23.87;19.77;;;36.60;22.90;;;;;;5002390;28;20179;-65
2022/03/28 11:52:21;;;;;;;22.00;19.87;;;36.30;22.80;;;;;;4993613;28;20482;-65
2022/03/28 11:54:47;;;;;;;21.87;19.63;;;36.30;22.90;;;;;;4985077;28;20438;-66
2022/03/28 12:00:24;;;;;;;23.43;20.37;;;36.30;22.80;;;;;;4984446;28;20634;-65
2022/03/28 12:02:51;;;;;;;22.53;20.53;;;36.50;22.50;;;;;;4983485;28;20461;-66
2022/03/28 12:05:31;;;;;;;21.73;19.60;;;36.10;22.60;;;;;;4990622;28;20441;-65
2022/03/28 12:07:58;;;;;;;22.07;20.17;;;36.60;22.50;;;;;;4986328;28;20442;-66
2022/03/28 12:10:25;;;;;;;23.90;21.70;;;36.70;22.50;;;;;;4987765;28;20500;-66
2022/03/28 12:12:51;;;;;;;21.80;19.60;;;36.90;22.40;;;;;;4976753;28;21031;-66
2022/03/28 12:15:27;;;;;;;23.20;20.90;;;36.90;22.50;;;;;;4989747;28;20625;-66
2022/03/28 12:17:54;;;;;;;23.17;20.87;;;36.30;22.60;;;;;;4985011;28;20528;-66
2022/03/28 12:20:23;;;;;;;23.30;20.90;;;35.20;22.70;;;;;;4988709;28;20457;-68
2022/03/28 12:22:49;;;;;;;22.87;20.70;;;35.30;23.10;;;;;;4982672;28;20466;-67
2022/03/28 12:25:29;;;;;;;22.60;20.20;;;35.50;22.90;;;;;;4984032;28;20448;-67
2022/03/28 12:27:58;;;;;;;22.53;20.23;;;36.60;22.50;;;;;;4969669;28;20460;-67
2022/03/28 12:30:28;;;;;;;24.97;22.10;;;36.50;22.80;;;;;;4992521;28;20443;-66
2022/03/28 12:32:54;;;;;;;23.80;20.67;;;36.90;22.90;;;;;;4983555;28;20458;-65
2022/03/28 12:35:21;;;;;;;20.67;18.83;;;37.10;23.20;;;;;;4989653;28;20446;-66
2022/03/28 12:38:00;;;;;;;21.23;19.10;;;38.80;22.90;;;;;;4988132;28;20451;-66
2022/03/28 12:40:31;;;;;;;22.23;20.00;;;38.90;22.40;;;;;;4994758;28;20533;-66
2022/03/28 12:42:58;;;;;;;24.37;21.87;;;39.10;22.30;;;;;;4988920;28;20498;-67